Time;durP1;ratioP1;P1;durP2;ratioP2;P2;SDS_P1;SDS_P2;PMS_P1;PMS_P2;Temp;Humidity;BMP_temperature;BMP_pressure;BME280_temperature;BME280_humidity;BME280_pressure;Samples;Min_cycle;Max_cycle;Signal;HPM_P1;HPM_P2
2022/06/30 00:02:05;;;;;;;8.53;7.60;;;19.20;99.90;;;;;;5034192;28;20786;-72
2022/06/30 00:04:31;;;;;;;8.90;6.67;;;19.00;99.90;;;;;;5036002;28;20480;-71
2022/06/30 00:06:59;;;;;;;9.90;7.10;;;18.80;99.90;;;;;;5032121;28;20559;-72
2022/06/30 00:09:25;;;;;;;10.47;7.90;;;18.90;99.90;;;;;;5037865;28;20835;-72
2022/06/30 00:11:52;;;;;;;10.37;8.40;;;19.00;99.90;;;;;;5036869;28;20487;-72
2022/06/30 00:14:20;;;;;;;7.70;6.90;;;19.10;99.90;;;;;;5029896;28;21040;-71
2022/06/30 00:16:48;;;;;;;11.10;7.40;;;19.10;99.90;;;;;;5040068;28;20525;-71
2022/06/30 00:19:15;;;;;;;11.70;7.40;;;19.20;99.90;;;;;;5039755;28;20813;-72
2022/06/30 00:21:42;;;;;;;9.63;7.10;;;19.30;99.90;;;;;;5038052;28;21020;-72
2022/06/30 00:24:09;;;;;;;11.50;8.10;;;19.30;99.90;;;;;;5041503;28;21082;-72
2022/06/30 00:26:36;;;;;;;13.07;7.07;;;19.40;99.90;;;;;;5037967;28;20468;-72
2022/06/30 00:29:03;;;;;;;10.33;7.83;;;19.40;99.90;;;;;;5040546;28;20798;-72
2022/06/30 00:31:31;;;;;;;9.53;7.77;;;19.40;99.90;;;;;;5041263;28;20478;-72
2022/06/30 00:33:58;;;;;;;8.00;7.20;;;19.30;99.90;;;;;;5035675;28;20479;-72
2022/06/30 00:36:25;;;;;;;8.70;7.50;;;19.30;99.90;;;;;;5040614;28;20468;-72
2022/06/30 00:38:51;;;;;;;10.17;7.87;;;19.30;99.90;;;;;;5038162;28;20815;-73
2022/06/30 00:41:18;;;;;;;8.90;7.37;;;19.20;99.90;;;;;;5039034;28;20480;-72
2022/06/30 00:43:46;;;;;;;10.33;7.83;;;19.20;99.90;;;;;;5033129;28;20466;-72
2022/06/30 00:46:14;;;;;;;14.00;8.10;;;19.30;99.90;;;;;;5040879;28;20809;-72
2022/06/30 00:48:43;;;;;;;9.80;7.67;;;19.20;99.90;;;;;;5044576;28;20964;-72
2022/06/30 00:51:10;;;;;;;8.83;7.63;;;19.30;99.90;;;;;;5044340;28;20479;-72
2022/06/30 00:53:39;;;;;;;12.10;8.43;;;19.30;99.90;;;;;;5041333;28;20456;-72
2022/06/30 00:56:08;;;;;;;8.63;6.83;;;19.30;99.90;;;;;;5041124;28;20460;-72
2022/06/30 00:58:39;;;;;;;9.20;8.03;;;19.20;99.90;;;;;;5037346;28;20594;-72
2022/06/30 01:01:07;;;;;;;10.00;6.87;;;19.20;99.90;;;;;;5035052;28;21295;-72
2022/06/30 01:03:35;;;;;;;9.90;6.67;;;19.10;99.90;;;;;;5035934;28;20463;-72
2022/06/30 01:06:05;;;;;;;11.67;7.57;;;19.00;99.90;;;;;;5036857;28;20830;-72
2022/06/30 01:08:33;;;;;;;11.90;7.37;;;19.00;99.90;;;;;;5043203;28;20526;-72
2022/06/30 01:13:44;;;;;;;10.83;8.17;;;19.00;99.90;;;;;;5037516;28;20496;-72
2022/06/30 01:16:11;;;;;;;8.30;7.47;;;19.00;99.90;;;;;;5034875;28;20467;-72
2022/06/30 01:18:39;;;;;;;11.27;7.30;;;18.90;99.90;;;;;;5040828;28;20813;-72
2022/06/30 01:21:07;;;;;;;8.10;6.77;;;18.90;99.90;;;;;;5032482;28;20487;-72
2022/06/30 01:23:35;;;;;;;8.83;6.80;;;18.90;99.90;;;;;;5040418;28;20478;-72
2022/06/30 01:26:02;;;;;;;8.90;7.13;;;18.70;99.90;;;;;;5041434;28;20491;-72
2022/06/30 01:28:29;;;;;;;11.90;8.43;;;18.70;99.90;;;;;;5039033;28;20452;-72
2022/06/30 01:30:56;;;;;;;12.43;9.10;;;18.70;99.90;;;;;;5048432;28;20592;-72
2022/06/30 01:33:23;;;;;;;11.73;8.10;;;18.70;99.90;;;;;;5034713;28;21017;-72
2022/06/30 01:35:50;;;;;;;15.90;8.60;;;18.60;99.90;;;;;;5042715;28;20462;-72
2022/06/30 01:38:19;;;;;;;8.07;6.23;;;18.70;99.90;;;;;;5041199;28;20444;-72
2022/06/30 01:40:48;;;;;;;11.10;8.70;;;18.70;99.90;;;;;;5030414;28;20479;-72
2022/06/30 01:43:14;;;;;;;8.10;7.30;;;18.70;99.90;;;;;;5037137;28;20506;-72
2022/06/30 01:45:42;;;;;;;12.13;8.97;;;18.70;99.90;;;;;;5033957;28;20981;-72
2022/06/30 01:48:10;;;;;;;10.80;7.37;;;18.70;99.90;;;;;;5040802;28;20462;-72
2022/06/30 01:50:37;;;;;;;10.53;8.10;;;18.40;99.90;;;;;;5042937;28;20475;-72
2022/06/30 01:53:04;;;;;;;13.53;9.10;;;18.50;99.90;;;;;;5032698;28;20464;-72
2022/06/30 01:55:31;;;;;;;9.93;7.73;;;18.50;99.90;;;;;;5039810;28;20963;-72
2022/06/30 01:57:59;;;;;;;12.40;8.70;;;18.30;99.90;;;;;;5040942;28;20464;-72
2022/06/30 02:00:28;;;;;;;11.37;8.13;;;18.40;99.90;;;;;;5076763;22;21448;-72
2022/06/30 02:02:56;;;;;;;10.50;8.00;;;18.50;99.90;;;;;;5035980;28;20551;-72
2022/06/30 02:05:24;;;;;;;14.93;9.30;;;18.40;99.90;;;;;;5038669;28;20476;-72
2022/06/30 02:07:52;;;;;;;11.27;8.10;;;18.40;99.90;;;;;;5042313;28;20464;-72
2022/06/30 02:10:21;;;;;;;11.77;7.70;;;18.30;99.90;;;;;;5031008;28;20479;-72
2022/06/30 02:12:49;;;;;;;8.73;7.80;;;18.30;99.90;;;;;;5019215;28;20543;-72
2022/06/30 02:15:20;;;;;;;11.07;8.70;;;18.30;99.90;;;;;;5020661;28;20469;-72
2022/06/30 02:17:49;;;;;;;12.30;9.33;;;18.30;99.90;;;;;;5023884;28;20486;-72
2022/06/30 02:20:20;;;;;;;9.87;8.80;;;18.40;99.90;;;;;;5022962;28;20466;-72
2022/06/30 02:22:48;;;;;;;13.40;8.57;;;18.10;99.90;;;;;;5022936;28;20801;-72
2022/06/30 02:25:15;;;;;;;13.80;11.13;;;18.00;99.90;;;;;;5022692;28;20490;-72
2022/06/30 02:27:41;;;;;;;14.60;9.50;;;18.00;99.90;;;;;;5025026;28;20447;-72
2022/06/30 02:30:09;;;;;;;13.60;10.30;;;18.10;99.90;;;;;;5021211;28;20510;-72
2022/06/30 02:32:38;;;;;;;10.93;9.13;;;18.10;99.90;;;;;;5018130;28;20552;-72
2022/06/30 02:35:05;;;;;;;12.13;8.53;;;18.10;99.90;;;;;;5021930;28;20554;-72
2022/06/30 02:37:32;;;;;;;10.90;8.30;;;18.10;99.90;;;;;;5026965;28;20437;-72
2022/06/30 02:39:59;;;;;;;18.33;10.07;;;18.10;99.90;;;;;;5019539;28;20471;-72
2022/06/30 02:42:26;;;;;;;11.37;8.87;;;18.20;99.90;;;;;;5022556;28;20457;-72
2022/06/30 02:44:53;;;;;;;17.73;11.00;;;18.20;99.90;;;;;;5005200;28;21023;-72
2022/06/30 02:47:20;;;;;;;14.90;10.63;;;18.10;99.90;;;;;;5005025;28;20961;-72
2022/06/30 02:49:48;;;;;;;18.40;8.50;;;18.10;99.90;;;;;;5018306;28;20484;-72
2022/06/30 02:52:15;;;;;;;13.97;9.37;;;18.20;99.90;;;;;;5016726;28;20562;-72
2022/06/30 02:54:44;;;;;;;12.03;8.37;;;18.20;99.90;;;;;;5016782;28;20536;-72
2022/06/30 02:57:10;;;;;;;12.13;8.90;;;18.10;99.90;;;;;;5011076;28;20468;-72
2022/06/30 02:59:37;;;;;;;14.27;10.17;;;17.90;99.90;;;;;;5007737;28;20456;-72
2022/06/30 03:02:05;;;;;;;13.43;11.10;;;18.00;99.90;;;;;;5002883;28;20485;-72
2022/06/30 03:04:33;;;;;;;15.70;10.40;;;18.10;99.90;;;;;;5014247;28;20457;-72
2022/06/30 03:07:02;;;;;;;19.97;11.17;;;18.20;99.90;;;;;;5020134;28;23596;-72
2022/06/30 03:09:29;;;;;;;15.13;9.57;;;18.10;99.90;;;;;;5016465;28;20691;-72
2022/06/30 03:11:56;;;;;;;13.97;9.40;;;18.10;99.90;;;;;;5017538;28;20656;-72
2022/06/30 03:14:23;;;;;;;11.00;9.50;;;18.10;99.90;;;;;;5012261;28;20473;-71
2022/06/30 03:16:54;;;;;;;12.90;9.70;;;18.10;99.90;;;;;;5002867;28;21132;-71
2022/06/30 03:19:24;;;;;;;13.57;10.10;;;18.00;99.90;;;;;;5010253;28;21002;-71
2022/06/30 03:21:53;;;;;;;10.97;8.40;;;18.10;99.90;;;;;;5007440;28;20488;-71
2022/06/30 03:24:23;;;;;;;12.40;9.07;;;18.10;99.90;;;;;;5013703;28;20457;-72
2022/06/30 03:26:50;;;;;;;14.43;9.73;;;18.00;99.90;;;;;;5018858;28;20482;-72
2022/06/30 03:29:17;;;;;;;16.63;11.47;;;18.00;99.90;;;;;;5018664;28;20837;-73
2022/06/30 03:31:44;;;;;;;15.13;9.40;;;17.90;99.90;;;;;;5013209;28;20483;-72
2022/06/30 03:34:11;;;;;;;14.80;10.70;;;17.70;99.90;;;;;;5015027;28;20922;-72
2022/06/30 03:36:38;;;;;;;14.10;9.70;;;17.70;99.90;;;;;;5013452;28;20483;-74
2022/06/30 03:39:06;;;;;;;14.50;9.40;;;17.70;99.90;;;;;;5009985;28;20467;-73
2022/06/30 03:41:34;;;;;;;14.53;9.77;;;17.80;99.90;;;;;;5015559;28;20490;-74
2022/06/30 03:44:01;;;;;;;14.37;11.17;;;17.70;99.90;;;;;;5018586;28;20462;-73
2022/06/30 03:46:28;;;;;;;13.00;9.63;;;17.80;99.90;;;;;;5015595;28;20513;-72
2022/06/30 03:48:57;;;;;;;14.60;10.00;;;17.80;99.90;;;;;;5018857;28;20496;-72
2022/06/30 03:51:24;;;;;;;16.40;9.47;;;17.90;99.90;;;;;;5024591;28;20473;-73
2022/06/30 03:53:56;;;;;;;12.80;8.90;;;18.00;99.90;;;;;;5002500;28;20937;-72
2022/06/30 03:56:25;;;;;;;16.73;9.53;;;18.00;99.90;;;;;;5004331;28;20947;-72
2022/06/30 03:58:53;;;;;;;14.67;9.87;;;18.10;99.90;;;;;;5017038;28;20468;-72
2022/06/30 04:01:20;;;;;;;11.57;9.03;;;18.10;99.90;;;;;;5003094;28;20495;-72
2022/06/30 04:03:52;;;;;;;11.43;8.27;;;18.20;99.90;;;;;;5012304;28;20467;-72
2022/06/30 04:06:23;;;;;;;15.73;10.60;;;18.20;99.90;;;;;;5006625;28;20972;-71
2022/06/30 04:08:50;;;;;;;11.07;7.43;;;18.30;99.90;;;;;;5018806;28;20467;-72
2022/06/30 04:11:17;;;;;;;11.83;9.17;;;18.30;99.90;;;;;;5017537;28;21031;-73
2022/06/30 04:13:46;;;;;;;14.50;9.33;;;18.30;99.90;;;;;;5023174;28;20453;-72
2022/06/30 04:16:19;;;;;;;10.83;9.30;;;18.20;99.90;;;;;;5018027;28;20496;-73
2022/06/30 04:18:49;;;;;;;15.70;11.83;;;18.20;99.90;;;;;;5016452;28;20461;-73
2022/06/30 04:21:16;;;;;;;15.50;8.90;;;18.30;99.90;;;;;;5021356;28;20603;-73
2022/06/30 04:23:48;;;;;;;12.93;8.00;;;18.40;99.90;;;;;;5021420;28;20464;-73
2022/06/30 04:26:17;;;;;;;20.10;11.00;;;18.40;99.90;;;;;;5020481;28;20478;-73
2022/06/30 04:28:43;;;;;;;11.97;10.33;;;18.50;99.90;;;;;;5019073;28;20465;-73
2022/06/30 04:33:56;;;;;;;13.97;9.97;;;18.50;99.90;;;;;;5018383;28;20538;-73
2022/06/30 04:36:23;;;;;;;18.60;12.33;;;18.60;99.90;;;;;;5019299;28;20457;-72
2022/06/30 04:38:50;;;;;;;14.00;10.10;;;18.60;99.90;;;;;;5012319;28;20485;-73
2022/06/30 04:41:27;;;;;;;14.80;10.30;;;18.70;99.90;;;;;;5015415;28;20477;-73
2022/06/30 04:43:54;;;;;;;12.37;8.47;;;18.70;99.90;;;;;;5011976;28;20913;-72
2022/06/30 04:46:21;;;;;;;13.77;9.27;;;18.80;99.90;;;;;;5013516;28;20480;-73
2022/06/30 04:48:49;;;;;;;12.40;8.63;;;18.80;99.90;;;;;;5013578;28;20465;-73
2022/06/30 04:51:18;;;;;;;14.33;9.90;;;18.90;99.90;;;;;;5006726;28;20498;-72
2022/06/30 04:53:45;;;;;;;12.37;10.07;;;18.90;99.90;;;;;;5014538;28;20468;-72
2022/06/30 04:56:12;;;;;;;13.30;8.93;;;19.00;99.90;;;;;;5017397;28;20467;-71
2022/06/30 04:58:39;;;;;;;11.40;8.83;;;19.20;99.90;;;;;;5018790;28;20440;-72
2022/06/30 05:01:06;;;;;;;17.30;10.60;;;19.40;99.90;;;;;;5014452;28;20491;-71
2022/06/30 05:03:34;;;;;;;14.27;10.37;;;19.60;99.90;;;;;;5017527;28;20524;-71
2022/06/30 05:06:03;;;;;;;17.67;12.37;;;19.80;99.90;;;;;;5017424;28;20926;-72
2022/06/30 05:08:31;;;;;;;13.40;11.40;;;20.00;99.90;;;;;;5019397;28;20453;-72
2022/06/30 05:10:58;;;;;;;17.63;11.27;;;20.10;99.90;;;;;;5016261;28;21001;-71
2022/06/30 05:13:25;;;;;;;18.00;11.17;;;20.20;99.90;;;;;;5021758;28;20821;-72
2022/06/30 05:15:52;;;;;;;15.90;11.40;;;20.20;99.90;;;;;;5023194;28;20452;-71
2022/06/30 05:18:19;;;;;;;23.40;12.17;;;20.20;99.90;;;;;;5023187;28;20453;-72
2022/06/30 05:20:48;;;;;;;13.00;10.40;;;20.20;99.90;;;;;;5022838;28;20473;-72
2022/06/30 05:23:15;;;;;;;14.53;12.70;;;20.40;99.90;;;;;;5019270;28;20585;-71
2022/06/30 05:34:27;;;;;;;10.30;9.17;;;21.80;99.90;;;;;;5019447;28;20544;-73
2022/06/30 05:40:09;;;;;;;11.80;9.50;;;22.50;99.90;;;;;;4958004;28;21165;-72
2022/06/30 05:42:41;;;;;;;10.83;8.60;;;23.00;99.90;;;;;;5021154;28;20534;-72
2022/06/30 05:47:51;;;;;;;11.67;8.53;;;23.30;99.90;;;;;;5022330;28;20464;-72
2022/06/30 05:50:18;;;;;;;12.23;8.73;;;23.30;99.90;;;;;;5024734;28;20468;-72
2022/06/30 05:52:46;;;;;;;9.67;8.67;;;23.90;99.90;;;;;;5025074;28;21094;-72
2022/06/30 05:55:16;;;;;;;10.60;8.27;;;24.40;99.90;;;;;;5020764;28;20534;-72
2022/06/30 05:57:55;;;;;;;10.03;8.90;;;24.90;99.90;;;;;;5024904;28;20559;-72
2022/06/30 06:00:23;;;;;;;11.40;9.20;;;25.40;99.90;;;;;;5021721;28;20571;-72
2022/06/30 06:02:50;;;;;;;12.00;9.63;;;26.00;99.90;;;;;;5017080;28;20456;-72
2022/06/30 06:05:17;;;;;;;15.70;9.60;;;26.50;99.90;;;;;;5025273;28;20445;-73
2022/06/30 06:08:10;;;;;;;23.00;11.10;;;26.70;99.90;;;;;;5021952;28;20472;-73
2022/06/30 06:10:39;;;;;;;12.23;9.33;;;26.90;99.90;;;;;;5024163;28;20892;-73
2022/06/30 06:13:13;;;;;;;12.47;8.37;;;26.80;99.90;;;;;;5026895;28;20480;-73
2022/06/30 06:15:40;;;;;;;15.20;9.83;;;27.10;99.90;;;;;;5024368;28;20453;-73
2022/06/30 06:18:11;;;;;;;10.70;9.70;;;27.30;99.90;;;;;;5023790;28;20730;-73
2022/06/30 06:20:38;;;;;;;13.90;9.10;;;27.60;99.90;;;;;;5023333;28;20539;-73
2022/06/30 06:23:07;;;;;;;12.63;8.23;;;27.80;99.90;;;;;;5022919;28;20464;-73
2022/06/30 06:25:40;;;;;;;12.63;9.20;;;28.20;99.90;;;;;;5026260;28;20479;-73
2022/06/30 06:31:01;;;;;;;11.97;9.43;;;28.40;99.90;;;;;;5020612;28;20484;-74
2022/06/30 06:33:29;;;;;;;12.77;9.10;;;28.50;99.90;;;;;;5022558;28;20457;-72
2022/06/30 06:35:59;;;;;;;12.73;9.20;;;28.80;99.90;;;;;;5018655;28;20544;-72
2022/06/30 06:38:26;;;;;;;12.27;9.80;;;29.00;99.90;;;;;;5022510;28;20430;-72
2022/06/30 06:40:54;;;;;;;13.20;9.60;;;29.20;99.90;;;;;;5025650;28;20469;-72
2022/06/30 06:43:26;;;;;;;11.70;9.93;;;29.40;99.90;;;;;;5016997;28;20462;-72
2022/06/30 06:45:53;;;;;;;11.10;9.40;;;29.40;99.90;;;;;;5025142;28;20626;-72
2022/06/30 06:48:22;;;;;;;10.27;8.70;;;29.50;99.90;;;;;;5025844;28;20524;-72
2022/06/30 06:50:49;;;;;;;11.70;8.30;;;29.60;99.90;;;;;;5027437;28;20489;-72
2022/06/30 06:53:16;;;;;;;21.53;10.60;;;29.30;99.90;;;;;;5022629;28;20834;-73
2022/06/30 06:55:43;;;;;;;10.90;9.20;;;29.60;99.90;;;;;;5022901;28;20549;-73
2022/06/30 06:58:12;;;;;;;9.70;8.70;;;29.90;99.90;;;;;;5026443;28;20500;-72
2022/06/30 07:00:43;;;;;;;12.70;9.10;;;29.90;99.90;;;;;;5018466;28;20494;-72
2022/06/30 07:03:10;;;;;;;11.30;9.87;;;30.00;99.90;;;;;;5029284;28;23100;-72
2022/06/30 07:05:37;;;;;;;9.17;8.27;;;30.00;99.90;;;;;;5033790;28;20974;-73
2022/06/30 07:08:05;;;;;;;9.87;8.20;;;30.10;99.90;;;;;;5023288;28;20553;-73
2022/06/30 07:10:33;;;;;;;9.53;8.10;;;30.00;99.90;;;;;;5026692;28;20481;-72
2022/06/30 07:13:02;;;;;;;10.30;7.87;;;30.30;99.90;;;;;;5026337;28;20927;-73
2022/06/30 07:15:29;;;;;;;8.80;8.00;;;31.00;99.90;;;;;;5024510;28;20484;-72
2022/06/30 07:17:58;;;;;;;9.37;8.47;;;31.10;99.90;;;;;;5026421;28;20458;-73
2022/06/30 07:20:25;;;;;;;10.60;8.10;;;30.50;99.90;;;;;;5030013;28;20496;-73
2022/06/30 07:22:58;;;;;;;8.80;7.77;;;30.70;99.90;;;;;;5027823;28;20452;-73
2022/06/30 07:25:25;;;;;;;13.50;8.50;;;31.10;99.90;;;;;;5023236;28;21084;-72
2022/06/30 07:27:57;;;;;;;8.83;8.00;;;31.40;99.90;;;;;;5022210;28;20487;-73
2022/06/30 07:30:25;;;;;;;10.43;7.77;;;32.00;99.90;;;;;;5020710;28;20479;-73
2022/06/30 07:32:52;;;;;;;9.40;7.20;;;32.30;99.90;;;;;;5021588;28;20464;-73
2022/06/30 07:35:20;;;;;;;9.87;8.17;;;32.60;99.90;;;;;;5018106;28;20460;-72
2022/06/30 07:37:47;;;;;;;6.77;6.10;;;32.30;99.90;;;;;;5022301;28;20547;-71
2022/06/30 07:40:14;;;;;;;7.70;6.90;;;32.30;99.90;;;;;;5015198;28;20476;-72
2022/06/30 07:42:42;;;;;;;7.90;6.27;;;32.70;99.90;;;;;;5023342;28;20470;-72
2022/06/30 07:45:12;;;;;;;9.17;6.43;;;33.00;99.90;;;;;;5025511;28;20479;-72
2022/06/30 07:47:40;;;;;;;7.13;6.53;;;33.70;99.90;;;;;;5022184;28;20586;-72
2022/06/30 07:50:14;;;;;;;5.87;5.37;;;33.40;99.90;;;;;;5016737;28;20479;-71
2022/06/30 07:52:43;;;;;;;8.03;5.67;;;33.60;99.90;;;;;;5020854;28;20476;-72
2022/06/30 07:55:10;;;;;;;7.73;6.27;;;33.10;99.90;;;;;;5024587;28;20899;-72
2022/06/30 07:57:38;;;;;;;8.13;5.83;;;33.20;99.90;;;;;;5021862;28;20456;-72
2022/06/30 08:02:32;;;;;;;6.83;6.07;;;33.80;99.90;;;;;;4992510;28;20496;-71
2022/06/30 08:04:59;;;;;;;6.90;5.90;;;33.10;99.90;;;;;;5001283;28;20452;-72
2022/06/30 08:07:26;;;;;;;6.67;5.97;;;33.10;99.90;;;;;;5001486;28;20485;-72
2022/06/30 08:09:54;;;;;;;11.60;6.23;;;33.60;99.90;;;;;;5006885;28;20803;-72
2022/06/30 08:12:21;;;;;;;8.00;5.77;;;33.30;99.90;;;;;;5000399;28;20952;-72
2022/06/30 08:14:48;;;;;;;7.30;6.60;;;33.20;99.90;;;;;;5002326;28;20451;-71
2022/06/30 08:17:15;;;;;;;5.87;5.33;;;33.80;99.90;;;;;;4997433;28;20457;-72
2022/06/30 08:19:42;;;;;;;6.63;5.10;;;34.80;99.90;;;;;;5001071;28;20980;-71
2022/06/30 08:22:09;;;;;;;7.80;5.60;;;34.80;98.00;;;;;;5000585;28;20483;-71
2022/06/30 08:24:36;;;;;;;6.47;5.77;;;33.60;99.70;;;;;;5004987;28;20572;-71
2022/06/30 08:27:05;;;;;;;11.97;6.00;;;33.90;99.30;;;;;;5007547;28;20492;-71
2022/06/30 08:29:32;;;;;;;9.90;6.37;;;34.40;97.80;;;;;;4997297;28;20636;-71
2022/06/30 08:32:00;;;;;;;6.43;5.10;;;34.60;96.10;;;;;;5004533;28;20979;-71
2022/06/30 08:34:27;;;;;;;4.13;3.73;;;35.50;95.30;;;;;;4996340;28;20460;-72
2022/06/30 08:36:54;;;;;;;5.40;4.90;;;36.10;93.00;;;;;;4992458;28;20464;-71
2022/06/30 08:42:09;;;;;;;6.97;4.50;;;36.00;91.80;;;;;;5003898;28;20467;-72
2022/06/30 08:44:37;;;;;;;7.20;3.83;;;34.90;91.70;;;;;;4998840;28;20462;-72
2022/06/30 08:47:07;;;;;;;3.83;3.50;;;34.40;91.10;;;;;;4992426;28;20493;-72
2022/06/30 08:49:34;;;;;;;5.47;4.60;;;35.10;91.00;;;;;;5003167;28;20443;-71
2022/06/30 08:52:02;;;;;;;7.60;4.97;;;35.50;91.70;;;;;;5000233;28;20500;-72
2022/06/30 08:54:30;;;;;;;7.47;5.53;;;35.70;91.40;;;;;;4999625;28;20456;-71
2022/06/30 08:57:02;;;;;;;5.97;5.37;;;35.80;90.20;;;;;;5006333;28;20437;-72
2022/06/30 08:59:31;;;;;;;6.13;5.50;;;36.00;90.10;;;;;;5005093;28;20908;-72
2022/06/30 09:01:58;;;;;;;7.27;4.50;;;36.30;88.50;;;;;;5002223;28;21017;-72
2022/06/30 09:04:24;;;;;;;8.93;5.60;;;36.00;85.50;;;;;;4999494;28;20969;-72
2022/06/30 09:06:51;;;;;;;5.40;4.73;;;35.90;86.70;;;;;;4999250;28;20499;-72
2022/06/30 09:09:18;;;;;;;5.77;5.20;;;34.70;87.70;;;;;;5002247;28;20449;-72
2022/06/30 09:11:50;;;;;;;7.23;5.60;;;35.00;86.50;;;;;;4996948;28;20483;-71
2022/06/30 09:14:36;;;;;;;6.00;4.77;;;35.30;86.20;;;;;;5002325;28;20510;-71
2022/06/30 09:17:04;;;;;;;5.57;5.00;;;36.10;85.20;;;;;;4997206;28;20581;-72
2022/06/30 09:19:31;;;;;;;6.83;4.43;;;36.50;82.00;;;;;;5000575;28;20465;-72
2022/06/30 09:22:06;;;;;;;8.43;4.07;;;36.70;79.70;;;;;;5000007;28;20501;-72
2022/06/30 09:24:33;;;;;;;5.73;4.77;;;37.00;77.10;;;;;;4998079;28;20449;-72
2022/06/30 09:27:19;;;;;;;5.77;4.30;;;37.20;76.80;;;;;;5002806;28;21022;-71
2022/06/30 09:29:53;;;;;;;4.87;3.80;;;36.50;74.80;;;;;;4997934;28;20445;-71
2022/06/30 09:32:20;;;;;;;6.13;4.43;;;36.10;75.40;;;;;;5004762;28;20832;-72
2022/06/30 09:34:50;;;;;;;4.63;4.23;;;36.40;76.40;;;;;;5003364;28;20940;-72
2022/06/30 09:37:20;;;;;;;4.23;3.30;;;36.90;74.30;;;;;;5000724;28;20472;-71
2022/06/30 09:39:48;;;;;;;4.27;3.23;;;36.70;70.70;;;;;;4995282;28;20454;-72
2022/06/30 09:42:15;;;;;;;4.43;3.63;;;36.70;69.40;;;;;;5002309;28;20461;-72
2022/06/30 09:44:49;;;;;;;6.40;3.80;;;36.80;69.90;;;;;;5005125;28;20450;-71
2022/06/30 09:47:17;;;;;;;4.27;3.00;;;36.70;66.30;;;;;;5004602;28;20896;-72
2022/06/30 09:49:46;;;;;;;7.93;3.43;;;36.30;66.60;;;;;;5001211;28;20473;-72
2022/06/30 09:52:18;;;;;;;4.53;2.37;;;36.30;65.20;;;;;;5003342;28;20569;-72
2022/06/30 09:54:56;;;;;;;2.60;2.40;;;36.90;63.00;;;;;;5000483;28;20454;-72
2022/06/30 09:57:25;;;;;;;2.70;2.50;;;37.60;62.10;;;;;;4997070;28;20469;-72
2022/06/30 10:00:00;;;;;;;4.50;3.17;;;38.00;60.00;;;;;;5002572;28;20445;-72
2022/06/30 10:02:36;;;;;;;4.70;2.70;;;38.10;56.80;;;;;;5000779;28;20476;-72
2022/06/30 10:05:05;;;;;;;2.60;2.40;;;38.10;57.40;;;;;;4999945;28;20475;-72
2022/06/30 10:07:35;;;;;;;2.43;2.00;;;38.20;57.50;;;;;;4999989;28;20489;-72
2022/06/30 10:10:02;;;;;;;2.77;2.57;;;38.00;56.60;;;;;;5002626;28;20446;-72
2022/06/30 10:12:30;;;;;;;3.00;2.70;;;38.20;56.10;;;;;;4999996;28;20466;-72
2022/06/30 10:14:57;;;;;;;7.83;3.40;;;38.50;55.90;;;;;;5004236;28;20477;-72
2022/06/30 10:17:26;;;;;;;3.67;2.30;;;38.30;55.00;;;;;;5001034;28;20826;-72
2022/06/30 10:19:55;;;;;;;4.73;2.60;;;38.10;56.60;;;;;;5000136;28;20464;-72
2022/06/30 10:22:24;;;;;;;7.43;2.40;;;38.20;54.30;;;;;;5000514;28;20919;-72
2022/06/30 10:24:53;;;;;;;3.57;2.83;;;38.10;54.70;;;;;;5002697;28;20464;-72
2022/06/30 10:27:21;;;;;;;4.93;2.47;;;37.20;53.00;;;;;;5002943;28;23563;-72
2022/06/30 10:29:54;;;;;;;4.30;2.73;;;37.40;53.60;;;;;;5004355;28;20453;-72
2022/06/30 10:32:31;;;;;;;2.53;2.33;;;37.40;53.00;;;;;;5002521;28;20484;-72
2022/06/30 10:35:10;;;;;;;5.60;3.67;;;37.30;53.40;;;;;;5014480;28;20830;-73
2022/06/30 10:37:43;;;;;;;2.77;2.53;;;37.30;54.30;;;;;;5005386;28;20519;-72
2022/06/30 10:40:20;;;;;;;2.80;2.50;;;37.10;53.00;;;;;;4997703;28;20721;-72
2022/06/30 10:42:49;;;;;;;2.93;2.23;;;37.50;52.10;;;;;;5003145;28;21012;-72
2022/06/30 10:45:35;;;;;;;2.53;2.33;;;38.20;52.30;;;;;;5005253;28;20489;-72
2022/06/30 10:48:04;;;;;;;2.27;2.07;;;39.00;51.00;;;;;;5008776;28;20489;-72
2022/06/30 10:50:34;;;;;;;3.50;2.30;;;39.20;51.10;;;;;;5002321;28;20772;-72
2022/06/30 10:53:01;;;;;;;6.83;2.43;;;40.10;50.10;;;;;;5007063;28;21050;-73
2022/06/30 10:55:28;;;;;;;4.33;1.93;;;39.80;48.80;;;;;;5004212;28;20450;-72
2022/06/30 10:58:07;;;;;;;1.80;1.60;;;39.10;47.30;;;;;;5004615;28;20544;-73
2022/06/30 11:00:51;;;;;;;3.00;2.57;;;39.30;47.60;;;;;;5002142;28;20899;-73
2022/06/30 11:03:57;;;;;;;4.77;1.97;;;39.60;47.60;;;;;;5007945;28;20453;-73
2022/06/30 11:06:57;;;;;;;2.73;2.53;;;40.20;47.50;;;;;;5004631;28;20450;-72
2022/06/30 11:10:07;;;;;;;3.30;3.00;;;39.00;49.40;;;;;;5005417;28;20588;-72
2022/06/30 11:12:56;;;;;;;11.20;2.83;;;37.90;51.30;;;;;;5003390;28;20960;-73
2022/06/30 11:15:46;;;;;;;4.10;3.10;;;38.80;51.20;;;;;;5002443;28;20468;-74
2022/06/30 11:18:14;;;;;;;3.60;3.30;;;39.40;49.40;;;;;;5006085;28;20442;-73
2022/06/30 11:20:43;;;;;;;2.47;2.20;;;39.60;49.00;;;;;;4993435;28;20473;-73
2022/06/30 11:23:11;;;;;;;5.20;2.80;;;39.60;49.10;;;;;;5003812;28;20527;-71
2022/06/30 11:28:29;;;;;;;3.17;2.87;;;40.60;47.10;;;;;;5001002;28;21009;-71
2022/06/30 11:30:56;;;;;;;3.13;2.30;;;40.10;47.70;;;;;;4996597;28;20504;-71
2022/06/30 11:33:24;;;;;;;4.73;2.37;;;40.00;46.20;;;;;;5003475;28;20871;-72
2022/06/30 11:36:09;;;;;;;2.73;2.53;;;40.10;46.60;;;;;;5002720;28;20529;-71
2022/06/30 11:38:37;;;;;;;3.27;2.50;;;40.50;45.30;;;;;;4997986;28;20512;-71
2022/06/30 11:43:53;;;;;;;8.83;2.60;;;40.20;47.30;;;;;;4992905;28;20461;-71
2022/06/30 11:46:20;;;;;;;2.80;2.60;;;39.40;47.70;;;;;;5003032;28;20481;-71
2022/06/30 11:48:48;;;;;;;5.37;2.90;;;37.80;48.40;;;;;;5000816;28;20512;-71
2022/06/30 11:51:15;;;;;;;3.20;2.73;;;36.70;49.30;;;;;;4999431;28;20474;-71
2022/06/30 11:53:43;;;;;;;3.37;2.60;;;37.00;50.40;;;;;;4998965;28;20461;-71
2022/06/30 11:56:10;;;;;;;2.93;2.60;;;37.40;50.50;;;;;;5002263;28;21089;-72
2022/06/30 11:58:38;;;;;;;9.23;3.17;;;38.10;49.40;;;;;;5002158;28;20467;-71
2022/06/30 12:01:17;;;;;;;2.80;2.50;;;39.30;48.50;;;;;;4999279;28;21096;-74
2022/06/30 12:03:48;;;;;;;2.87;2.67;;;40.20;47.50;;;;;;4999058;28;20912;-72
2022/06/30 12:06:18;;;;;;;3.00;2.43;;;40.60;47.70;;;;;;5002999;28;20458;-72
2022/06/30 12:08:51;;;;;;;3.43;3.10;;;40.10;46.80;;;;;;5002157;28;20540;-72
2022/06/30 12:11:18;;;;;;;2.60;2.40;;;38.80;46.90;;;;;;5006262;28;21031;-71
2022/06/30 12:13:45;;;;;;;3.30;2.83;;;38.50;48.40;;;;;;5003079;28;20458;-72
2022/06/30 12:16:12;;;;;;;7.33;2.90;;;37.90;48.90;;;;;;5006377;28;20807;-71
2022/06/30 12:18:41;;;;;;;3.30;2.43;;;37.50;48.40;;;;;;5002426;28;20459;-71
2022/06/30 12:21:09;;;;;;;3.93;2.70;;;37.60;49.20;;;;;;4998946;28;20865;-72
2022/06/30 12:23:39;;;;;;;2.97;2.57;;;37.70;47.60;;;;;;4995434;28;20962;-71
2022/06/30 12:26:07;;;;;;;2.90;2.60;;;36.70;49.20;;;;;;5002336;28;20460;-71
2022/06/30 12:28:45;;;;;;;4.63;2.93;;;36.30;49.10;;;;;;4994014;28;21010;-73
2022/06/30 12:31:12;;;;;;;2.90;2.60;;;36.00;49.00;;;;;;5001284;28;20461;-72
2022/06/30 12:33:40;;;;;;;5.20;2.83;;;36.10;50.10;;;;;;5003251;28;20860;-72
2022/06/30 12:36:07;;;;;;;6.77;3.07;;;36.10;50.00;;;;;;4995002;28;20564;-72
2022/06/30 12:38:34;;;;;;;9.13;2.90;;;36.70;49.60;;;;;;5001028;28;21419;-73
2022/06/30 12:41:09;;;;;;;5.93;3.13;;;37.30;49.40;;;;;;4999626;28;20484;-72
2022/06/30 12:43:43;;;;;;;4.67;2.80;;;36.90;49.00;;;;;;4999408;28;20457;-72
2022/06/30 12:46:11;;;;;;;4.03;2.83;;;37.40;49.30;;;;;;5003526;28;20834;-71
2022/06/30 12:48:44;;;;;;;4.43;2.90;;;38.20;50.10;;;;;;5000935;28;20482;-72
2022/06/30 12:51:13;;;;;;;3.50;2.40;;;38.90;48.30;;;;;;4996267;28;21068;-72
2022/06/30 12:53:40;;;;;;;7.10;3.30;;;38.70;47.90;;;;;;5006000;28;20446;-72
2022/06/30 12:56:13;;;;;;;2.50;2.30;;;38.00;47.80;;;;;;5002622;28;20470;-72
2022/06/30 12:58:52;;;;;;;2.73;2.07;;;37.10;48.30;;;;;;5004184;28;20446;-72
2022/06/30 13:01:21;;;;;;;3.37;3.03;;;36.80;49.30;;;;;;4997634;28;20499;-72
2022/06/30 13:03:53;;;;;;;4.00;2.67;;;37.30;48.60;;;;;;5001913;28;20818;-71
2022/06/30 13:06:21;;;;;;;6.33;2.33;;;36.70;48.90;;;;;;4997401;28;20555;-72
2022/06/30 13:08:48;;;;;;;5.23;2.53;;;36.20;49.70;;;;;;5002346;28;20499;-72
2022/06/30 13:11:19;;;;;;;2.83;2.60;;;35.90;49.80;;;;;;4999429;28;20475;-71
2022/06/30 13:13:47;;;;;;;6.67;3.30;;;35.30;50.20;;;;;;5002885;28;20453;-71
2022/06/30 13:16:15;;;;;;;3.83;2.60;;;34.80;51.40;;;;;;4999524;28;20546;-71
2022/06/30 13:18:42;;;;;;;4.33;3.40;;;34.30;51.10;;;;;;5001031;28;20468;-71
2022/06/30 13:21:09;;;;;;;4.20;3.23;;;33.80;52.20;;;;;;4987187;28;20490;-71
2022/06/30 13:23:37;;;;;;;4.10;2.10;;;33.60;52.90;;;;;;4991348;28;20465;-71
2022/06/30 13:26:04;;;;;;;4.87;2.73;;;33.50;53.10;;;;;;4995446;28;20926;-71